sensor_id;sensor_type;location;lat;lon;timestamp;temperature;humidity
3198;DHT22;1611;49.394;11.136;2023-03-01T00:02:15;-0.80;54.70
3198;DHT22;1611;49.394;11.136;2023-03-01T00:04:42;-0.80;54.70
3198;DHT22;1611;49.394;11.136;2023-03-01T00:07:08;-0.80;54.80
3198;DHT22;1611;49.394;11.136;2023-03-01T00:09:37;-0.80;54.90
3198;DHT22;1611;49.394;11.136;2023-03-01T00:12:05;-0.70;55.00
3198;DHT22;1611;49.394;11.136;2023-03-01T00:14:32;-0.80;54.80
3198;DHT22;1611;49.394;11.136;2023-03-01T00:16:59;-0.80;54.90
3198;DHT22;1611;49.394;11.136;2023-03-01T00:19:27;-0.80;54.90
3198;DHT22;1611;49.394;11.136;2023-03-01T00:21:53;-0.80;55.20
3198;DHT22;1611;49.394;11.136;2023-03-01T00:24:20;-0.80;54.90
3198;DHT22;1611;49.394;11.136;2023-03-01T00:26:48;-0.80;55.20
3198;DHT22;1611;49.394;11.136;2023-03-01T00:29:15;-0.80;55.30
3198;DHT22;1611;49.394;11.136;2023-03-01T00:31:42;-0.80;55.30
3198;DHT22;1611;49.394;11.136;2023-03-01T00:34:09;-0.90;55.30
3198;DHT22;1611;49.394;11.136;2023-03-01T00:36:36;-0.80;55.30
3198;DHT22;1611;49.394;11.136;2023-03-01T00:39:04;-0.80;55.10
3198;DHT22;1611;49.394;11.136;2023-03-01T00:41:32;-0.80;55.20
3198;DHT22;1611;49.394;11.136;2023-03-01T00:44:01;-0.80;55.30
3198;DHT22;1611;49.394;11.136;2023-03-01T00:46:28;-0.80;55.30
3198;DHT22;1611;49.394;11.136;2023-03-01T00:48:56;-0.80;55.40
3198;DHT22;1611;49.394;11.136;2023-03-01T00:51:24;-0.80;55.40
3198;DHT22;1611;49.394;11.136;2023-03-01T00:53:52;-0.80;55.30
3198;DHT22;1611;49.394;11.136;2023-03-01T00:56:19;-0.80;55.10
3198;DHT22;1611;49.394;11.136;2023-03-01T00:58:46;-0.90;55.40
3198;DHT22;1611;49.394;11.136;2023-03-01T01:01:16;-1.00;55.70
3198;DHT22;1611;49.394;11.136;2023-03-01T01:03:45;-1.00;55.90
3198;DHT22;1611;49.394;11.136;2023-03-01T01:06:16;-1.00;56.10
3198;DHT22;1611;49.394;11.136;2023-03-01T01:08:43;-1.00;55.80
3198;DHT22;1611;49.394;11.136;2023-03-01T01:11:10;-1.10;56.30
3198;DHT22;1611;49.394;11.136;2023-03-01T01:13:37;-1.10;56.50
3198;DHT22;1611;49.394;11.136;2023-03-01T01:16:05;-1.10;56.40
3198;DHT22;1611;49.394;11.136;2023-03-01T01:18:33;-1.00;56.50
3198;DHT22;1611;49.394;11.136;2023-03-01T01:21:04;-1.10;56.50
3198;DHT22;1611;49.394;11.136;2023-03-01T01:23:31;-1.00;56.70
3198;DHT22;1611;49.394;11.136;2023-03-01T01:26:03;-1.10;56.40
3198;DHT22;1611;49.394;11.136;2023-03-01T01:28:30;-1.10;56.10
3198;DHT22;1611;49.394;11.136;2023-03-01T01:30:57;-1.00;56.10
3198;DHT22;1611;49.394;11.136;2023-03-01T01:33:23;-1.10;56.30
3198;DHT22;1611;49.394;11.136;2023-03-01T01:35:51;-1.10;56.20
3198;DHT22;1611;49.394;11.136;2023-03-01T01:38:18;-1.20;56.10
3198;DHT22;1611;49.394;11.136;2023-03-01T01:40:47;-1.10;56.50
3198;DHT22;1611;49.394;11.136;2023-03-01T01:43:19;-1.20;56.60
3198;DHT22;1611;49.394;11.136;2023-03-01T01:45:46;-1.10;56.50
3198;DHT22;1611;49.394;11.136;2023-03-01T01:48:18;-1.00;56.70
3198;DHT22;1611;49.394;11.136;2023-03-01T01:50:48;-1.10;56.10
3198;DHT22;1611;49.394;11.136;2023-03-01T01:53:19;-1.10;56.60
3198;DHT22;1611;49.394;11.136;2023-03-01T01:55:50;-1.10;56.50
3198;DHT22;1611;49.394;11.136;2023-03-01T01:58:19;-1.00;56.30
3198;DHT22;1611;49.394;11.136;2023-03-01T02:00:47;-1.20;56.30
3198;DHT22;1611;49.394;11.136;2023-03-01T02:03:18;-1.20;56.60
3198;DHT22;1611;49.394;11.136;2023-03-01T02:05:49;-1.30;56.70
3198;DHT22;1611;49.394;11.136;2023-03-01T02:08:20;-1.30;57.00
3198;DHT22;1611;49.394;11.136;2023-03-01T02:10:49;-1.30;57.10
3198;DHT22;1611;49.394;11.136;2023-03-01T02:13:17;-1.40;57.00
3198;DHT22;1611;49.394;11.136;2023-03-01T02:15:44;-1.30;56.80
3198;DHT22;1611;49.394;11.136;2023-03-01T02:18:14;-1.30;56.80
3198;DHT22;1611;49.394;11.136;2023-03-01T02:20:50;-1.20;56.50
3198;DHT22;1611;49.394;11.136;2023-03-01T02:23:22;-1.30;56.70
3198;DHT22;1611;49.394;11.136;2023-03-01T02:25:55;-1.20;57.00
3198;DHT22;1611;49.394;11.136;2023-03-01T02:28:30;-1.20;56.80
3198;DHT22;1611;49.394;11.136;2023-03-01T02:30:57;-1.20;56.60
3198;DHT22;1611;49.394;11.136;2023-03-01T02:33:41;-1.10;56.50
3198;DHT22;1611;49.394;11.136;2023-03-01T02:36:14;-1.00;56.10
3198;DHT22;1611;49.394;11.136;2023-03-01T02:38:42;-1.10;56.00
3198;DHT22;1611;49.394;11.136;2023-03-01T02:41:11;-1.10;55.70
3198;DHT22;1611;49.394;11.136;2023-03-01T02:43:41;-1.10;55.90
3198;DHT22;1611;49.394;11.136;2023-03-01T02:46:15;-1.00;55.60
3198;DHT22;1611;49.394;11.136;2023-03-01T02:48:44;-1.10;55.60
3198;DHT22;1611;49.394;11.136;2023-03-01T02:51:21;-1.00;55.60
3198;DHT22;1611;49.394;11.136;2023-03-01T02:53:59;-1.10;56.00
3198;DHT22;1611;49.394;11.136;2023-03-01T02:56:28;-1.00;56.00
3198;DHT22;1611;49.394;11.136;2023-03-01T02:58:57;-1.00;55.90
3198;DHT22;1611;49.394;11.136;2023-03-01T03:01:26;-1.00;55.90
3198;DHT22;1611;49.394;11.136;2023-03-01T03:04:02;-1.10;56.10
3198;DHT22;1611;49.394;11.136;2023-03-01T03:06:29;-1.00;56.00
3198;DHT22;1611;49.394;11.136;2023-03-01T03:08:56;-1.10;55.80
3198;DHT22;1611;49.394;11.136;2023-03-01T03:11:23;-1.10;55.50
3198;DHT22;1611;49.394;11.136;2023-03-01T03:13:50;-1.10;55.30
3198;DHT22;1611;49.394;11.136;2023-03-01T03:16:19;-1.10;55.30
3198;DHT22;1611;49.394;11.136;2023-03-01T03:18:46;-1.10;55.20
3198;DHT22;1611;49.394;11.136;2023-03-01T03:21:13;-1.10;55.50
3198;DHT22;1611;49.394;11.136;2023-03-01T03:23:40;-1.20;55.50
3198;DHT22;1611;49.394;11.136;2023-03-01T03:26:07;-1.20;55.40
3198;DHT22;1611;49.394;11.136;2023-03-01T03:28:34;-1.20;55.60
3198;DHT22;1611;49.394;11.136;2023-03-01T03:31:06;-1.30;55.70
3198;DHT22;1611;49.394;11.136;2023-03-01T03:33:35;-1.20;55.90
3198;DHT22;1611;49.394;11.136;2023-03-01T03:36:02;-1.30;55.90
3198;DHT22;1611;49.394;11.136;2023-03-01T03:38:29;-1.30;55.90
3198;DHT22;1611;49.394;11.136;2023-03-01T03:41:01;-1.20;55.60
3198;DHT22;1611;49.394;11.136;2023-03-01T03:43:30;-1.30;55.80
3198;DHT22;1611;49.394;11.136;2023-03-01T03:45:57;-1.40;55.90
3198;DHT22;1611;49.394;11.136;2023-03-01T03:48:25;-1.30;56.30
3198;DHT22;1611;49.394;11.136;2023-03-01T03:50:55;-1.30;56.10
3198;DHT22;1611;49.394;11.136;2023-03-01T03:53:23;-1.30;55.90
3198;DHT22;1611;49.394;11.136;2023-03-01T03:55:51;-1.40;55.80
3198;DHT22;1611;49.394;11.136;2023-03-01T03:58:18;-1.30;55.90
3198;DHT22;1611;49.394;11.136;2023-03-01T04:00:48;-1.30;55.90
3198;DHT22;1611;49.394;11.136;2023-03-01T04:03:16;-1.30;55.80
3198;DHT22;1611;49.394;11.136;2023-03-01T04:05:46;-1.20;55.80
3198;DHT22;1611;49.394;11.136;2023-03-01T04:08:17;-1.30;55.80
3198;DHT22;1611;49.394;11.136;2023-03-01T04:10:48;-1.30;55.90
3198;DHT22;1611;49.394;11.136;2023-03-01T04:13:18;-1.20;55.80
3198;DHT22;1611;49.394;11.136;2023-03-01T04:15:45;-1.30;55.80
3198;DHT22;1611;49.394;11.136;2023-03-01T04:18:13;-1.30;55.60
3198;DHT22;1611;49.394;11.136;2023-03-01T04:20:41;-1.30;55.60
3198;DHT22;1611;49.394;11.136;2023-03-01T04:23:11;-1.30;55.80
3198;DHT22;1611;49.394;11.136;2023-03-01T04:25:41;-1.40;56.30
3198;DHT22;1611;49.394;11.136;2023-03-01T04:28:09;-1.40;56.20
3198;DHT22;1611;49.394;11.136;2023-03-01T04:30:36;-1.40;56.20
3198;DHT22;1611;49.394;11.136;2023-03-01T04:33:04;-1.40;56.00
3198;DHT22;1611;49.394;11.136;2023-03-01T04:35:31;-1.40;55.90
3198;DHT22;1611;49.394;11.136;2023-03-01T04:37:58;-1.40;55.90
3198;DHT22;1611;49.394;11.136;2023-03-01T04:40:25;-1.50;56.40
3198;DHT22;1611;49.394;11.136;2023-03-01T04:42:53;-1.50;56.20
3198;DHT22;1611;49.394;11.136;2023-03-01T04:45:20;-1.40;56.00
3198;DHT22;1611;49.394;11.136;2023-03-01T04:47:47;-1.50;55.90
3198;DHT22;1611;49.394;11.136;2023-03-01T04:50:16;-1.40;55.80
3198;DHT22;1611;49.394;11.136;2023-03-01T04:52:46;-1.40;55.80
3198;DHT22;1611;49.394;11.136;2023-03-01T04:55:13;-1.40;55.60
3198;DHT22;1611;49.394;11.136;2023-03-01T04:57:40;-1.40;55.70
3198;DHT22;1611;49.394;11.136;2023-03-01T05:00:12;-1.40;55.60
3198;DHT22;1611;49.394;11.136;2023-03-01T05:02:50;-1.30;55.30
3198;DHT22;1611;49.394;11.136;2023-03-01T05:05:21;-1.40;55.30
3198;DHT22;1611;49.394;11.136;2023-03-01T05:07:54;-1.20;55.20
3198;DHT22;1611;49.394;11.136;2023-03-01T05:10:21;-1.40;55.10
3198;DHT22;1611;49.394;11.136;2023-03-01T05:12:48;-1.30;55.00
3198;DHT22;1611;49.394;11.136;2023-03-01T05:15:16;-1.30;55.00
3198;DHT22;1611;49.394;11.136;2023-03-01T05:17:43;-1.40;55.00
3198;DHT22;1611;49.394;11.136;2023-03-01T05:20:12;-1.40;55.00
3198;DHT22;1611;49.394;11.136;2023-03-01T05:22:38;-1.40;55.00
3198;DHT22;1611;49.394;11.136;2023-03-01T05:25:06;-1.60;54.50
3198;DHT22;1611;49.394;11.136;2023-03-01T05:27:33;-1.50;54.70
3198;DHT22;1611;49.394;11.136;2023-03-01T05:30:00;-1.50;54.60
3198;DHT22;1611;49.394;11.136;2023-03-01T05:32:43;-1.60;54.80
3198;DHT22;1611;49.394;11.136;2023-03-01T05:35:11;-1.60;55.30
3198;DHT22;1611;49.394;11.136;2023-03-01T05:37:40;-1.70;55.60
3198;DHT22;1611;49.394;11.136;2023-03-01T05:40:09;-1.90;55.50
3198;DHT22;1611;49.394;11.136;2023-03-01T05:42:42;-1.90;56.10
3198;DHT22;1611;49.394;11.136;2023-03-01T05:45:10;-1.90;56.50
3198;DHT22;1611;49.394;11.136;2023-03-01T05:47:40;-2.00;56.40
3198;DHT22;1611;49.394;11.136;2023-03-01T05:50:11;-1.90;56.80
3198;DHT22;1611;49.394;11.136;2023-03-01T05:52:38;-1.90;56.70
3198;DHT22;1611;49.394;11.136;2023-03-01T05:55:06;-2.00;56.70
3198;DHT22;1611;49.394;11.136;2023-03-01T05:57:33;-1.90;57.10
3198;DHT22;1611;49.394;11.136;2023-03-01T06:00:00;-1.80;57.10
3198;DHT22;1611;49.394;11.136;2023-03-01T06:02:27;-1.80;56.90
3198;DHT22;1611;49.394;11.136;2023-03-01T06:04:56;-1.80;56.90
3198;DHT22;1611;49.394;11.136;2023-03-01T06:07:22;-1.80;56.80
3198;DHT22;1611;49.394;11.136;2023-03-01T06:09:49;-1.70;56.80
3198;DHT22;1611;49.394;11.136;2023-03-01T06:12:18;-1.70;56.70
3198;DHT22;1611;49.394;11.136;2023-03-01T06:14:45;-1.60;56.80
3198;DHT22;1611;49.394;11.136;2023-03-01T06:17:13;-1.60;56.60
3198;DHT22;1611;49.394;11.136;2023-03-01T06:19:40;-1.50;56.50
3198;DHT22;1611;49.394;11.136;2023-03-01T06:22:09;-1.60;56.50
3198;DHT22;1611;49.394;11.136;2023-03-01T06:24:36;-1.60;56.60
3198;DHT22;1611;49.394;11.136;2023-03-01T06:27:03;-1.60;56.90
3198;DHT22;1611;49.394;11.136;2023-03-01T06:29:30;-1.50;56.80
3198;DHT22;1611;49.394;11.136;2023-03-01T06:31:56;-1.50;56.70
3198;DHT22;1611;49.394;11.136;2023-03-01T06:34:23;-1.50;56.40
3198;DHT22;1611;49.394;11.136;2023-03-01T06:36:50;-1.40;56.10
3198;DHT22;1611;49.394;11.136;2023-03-01T06:39:18;-1.40;55.60
3198;DHT22;1611;49.394;11.136;2023-03-01T06:41:45;-1.30;55.80
3198;DHT22;1611;49.394;11.136;2023-03-01T06:44:11;-1.30;55.70
3198;DHT22;1611;49.394;11.136;2023-03-01T06:46:39;-1.30;55.80
3198;DHT22;1611;49.394;11.136;2023-03-01T06:49:06;-1.40;55.90
3198;DHT22;1611;49.394;11.136;2023-03-01T06:51:35;-1.30;56.30
3198;DHT22;1611;49.394;11.136;2023-03-01T06:54:02;-1.30;56.30
3198;DHT22;1611;49.394;11.136;2023-03-01T06:56:30;-1.20;56.30
3198;DHT22;1611;49.394;11.136;2023-03-01T06:58:57;-1.20;56.50
3198;DHT22;1611;49.394;11.136;2023-03-01T07:01:24;-1.10;55.70
3198;DHT22;1611;49.394;11.136;2023-03-01T07:03:50;-0.90;55.60
3198;DHT22;1611;49.394;11.136;2023-03-01T07:06:17;-0.90;55.30
3198;DHT22;1611;49.394;11.136;2023-03-01T07:08:44;-0.90;55.30
3198;DHT22;1611;49.394;11.136;2023-03-01T07:11:11;-0.80;55.10
3198;DHT22;1611;49.394;11.136;2023-03-01T07:13:39;-0.70;54.70
3198;DHT22;1611;49.394;11.136;2023-03-01T07:16:07;-0.70;55.00
3198;DHT22;1611;49.394;11.136;2023-03-01T07:18:34;-0.70;54.90
3198;DHT22;1611;49.394;11.136;2023-03-01T07:21:04;-0.60;54.80
3198;DHT22;1611;49.394;11.136;2023-03-01T07:23:31;-0.60;54.40
3198;DHT22;1611;49.394;11.136;2023-03-01T07:25:57;-0.60;54.30
3198;DHT22;1611;49.394;11.136;2023-03-01T07:28:25;-0.50;54.10
3198;DHT22;1611;49.394;11.136;2023-03-01T07:30:53;-0.30;53.90
3198;DHT22;1611;49.394;11.136;2023-03-01T07:33:20;-0.20;54.10
3198;DHT22;1611;49.394;11.136;2023-03-01T07:35:47;-0.20;52.80
3198;DHT22;1611;49.394;11.136;2023-03-01T07:38:14;-0.10;52.60
3198;DHT22;1611;49.394;11.136;2023-03-01T07:40:40;0.10;52.40
3198;DHT22;1611;49.394;11.136;2023-03-01T07:43:07;0.20;52.20
3198;DHT22;1611;49.394;11.136;2023-03-01T07:45:34;0.30;51.80
3198;DHT22;1611;49.394;11.136;2023-03-01T07:48:02;0.40;51.00
3198;DHT22;1611;49.394;11.136;2023-03-01T07:50:29;0.50;50.50
3198;DHT22;1611;49.394;11.136;2023-03-01T07:52:55;0.70;48.70
3198;DHT22;1611;49.394;11.136;2023-03-01T07:55:22;1.00;47.30
3198;DHT22;1611;49.394;11.136;2023-03-01T07:57:49;1.00;46.60
3198;DHT22;1611;49.394;11.136;2023-03-01T08:00:16;1.20;46.10
3198;DHT22;1611;49.394;11.136;2023-03-01T08:02:43;1.30;45.40
3198;DHT22;1611;49.394;11.136;2023-03-01T08:05:12;1.40;45.10
3198;DHT22;1611;49.394;11.136;2023-03-01T08:07:39;1.50;43.60
3198;DHT22;1611;49.394;11.136;2023-03-01T08:10:06;1.60;44.90
3198;DHT22;1611;49.394;11.136;2023-03-01T08:12:33;1.70;44.50
3198;DHT22;1611;49.394;11.136;2023-03-01T08:15:00;1.80;43.60
3198;DHT22;1611;49.394;11.136;2023-03-01T08:17:26;1.80;42.80
3198;DHT22;1611;49.394;11.136;2023-03-01T08:19:53;2.00;42.10
3198;DHT22;1611;49.394;11.136;2023-03-01T08:22:21;2.00;41.70
3198;DHT22;1611;49.394;11.136;2023-03-01T08:24:48;2.10;39.50
3198;DHT22;1611;49.394;11.136;2023-03-01T08:27:15;2.20;42.40
3198;DHT22;1611;49.394;11.136;2023-03-01T08:29:42;2.40;42.00
3198;DHT22;1611;49.394;11.136;2023-03-01T08:32:08;2.50;41.20
3198;DHT22;1611;49.394;11.136;2023-03-01T08:34:35;2.60;39.20
3198;DHT22;1611;49.394;11.136;2023-03-01T08:37:02;2.60;38.00
3198;DHT22;1611;49.394;11.136;2023-03-01T08:39:30;2.70;37.80
3198;DHT22;1611;49.394;11.136;2023-03-01T08:41:57;2.80;37.60
3198;DHT22;1611;49.394;11.136;2023-03-01T08:44:24;2.90;38.20
3198;DHT22;1611;49.394;11.136;2023-03-01T08:46:51;3.00;36.80
3198;DHT22;1611;49.394;11.136;2023-03-01T08:49:19;3.10;36.90
3198;DHT22;1611;49.394;11.136;2023-03-01T08:51:46;3.30;35.90
3198;DHT22;1611;49.394;11.136;2023-03-01T08:54:15;3.40;34.80
3198;DHT22;1611;49.394;11.136;2023-03-01T08:56:43;3.40;35.30
3198;DHT22;1611;49.394;11.136;2023-03-01T08:59:10;3.50;35.20
3198;DHT22;1611;49.394;11.136;2023-03-01T09:01:37;3.60;35.60
3198;DHT22;1611;49.394;11.136;2023-03-01T09:04:06;3.60;34.40
3198;DHT22;1611;49.394;11.136;2023-03-01T09:06:33;3.60;34.60
3198;DHT22;1611;49.394;11.136;2023-03-01T09:09:01;3.80;33.30
3198;DHT22;1611;49.394;11.136;2023-03-01T09:11:28;3.90;34.30
3198;DHT22;1611;49.394;11.136;2023-03-01T09:13:56;4.00;32.80
3198;DHT22;1611;49.394;11.136;2023-03-01T09:16:23;4.10;32.60
3198;DHT22;1611;49.394;11.136;2023-03-01T09:18:51;4.20;32.30
3198;DHT22;1611;49.394;11.136;2023-03-01T09:21:21;4.30;32.80
3198;DHT22;1611;49.394;11.136;2023-03-01T09:23:49;4.50;32.30
3198;DHT22;1611;49.394;11.136;2023-03-01T09:26:18;4.60;32.50
3198;DHT22;1611;49.394;11.136;2023-03-01T09:28:47;4.60;31.80
3198;DHT22;1611;49.394;11.136;2023-03-01T09:31:16;4.60;30.80
3198;DHT22;1611;49.394;11.136;2023-03-01T09:33:46;4.90;31.40
3198;DHT22;1611;49.394;11.136;2023-03-01T09:36:15;5.00;31.10
3198;DHT22;1611;49.394;11.136;2023-03-01T09:38:42;5.00;29.90
3198;DHT22;1611;49.394;11.136;2023-03-01T09:41:11;5.20;30.40
3198;DHT22;1611;49.394;11.136;2023-03-01T09:43:45;5.30;29.60
3198;DHT22;1611;49.394;11.136;2023-03-01T09:46:15;5.40;29.50
3198;DHT22;1611;49.394;11.136;2023-03-01T09:48:44;5.60;28.50
3198;DHT22;1611;49.394;11.136;2023-03-01T09:51:16;5.70;28.20
3198;DHT22;1611;49.394;11.136;2023-03-01T09:53:44;5.80;27.30
3198;DHT22;1611;49.394;11.136;2023-03-01T09:56:17;6.00;27.40
3198;DHT22;1611;49.394;11.136;2023-03-01T09:58:50;6.00;27.20
3198;DHT22;1611;49.394;11.136;2023-03-01T10:01:38;6.30;26.40
3198;DHT22;1611;49.394;11.136;2023-03-01T10:04:19;6.70;26.20
3198;DHT22;1611;49.394;11.136;2023-03-01T10:07:06;7.40;24.30
3198;DHT22;1611;49.394;11.136;2023-03-01T10:09:41;8.40;22.10
3198;DHT22;1611;49.394;11.136;2023-03-01T10:12:10;9.30;20.30
3198;DHT22;1611;49.394;11.136;2023-03-01T10:14:40;10.30;17.70
3198;DHT22;1611;49.394;11.136;2023-03-01T10:17:19;11.10;17.00
3198;DHT22;1611;49.394;11.136;2023-03-01T10:19:46;11.70;15.90
3198;DHT22;1611;49.394;11.136;2023-03-01T10:22:16;12.00;14.50
3198;DHT22;1611;49.394;11.136;2023-03-01T10:24:43;11.70;15.10
3198;DHT22;1611;49.394;11.136;2023-03-01T10:27:17;12.00;14.50
3198;DHT22;1611;49.394;11.136;2023-03-01T10:29:48;12.60;13.90
3198;DHT22;1611;49.394;11.136;2023-03-01T10:32:17;12.80;14.00
3198;DHT22;1611;49.394;11.136;2023-03-01T10:34:44;13.10;12.80
3198;DHT22;1611;49.394;11.136;2023-03-01T10:37:13;13.20;13.00
3198;DHT22;1611;49.394;11.136;2023-03-01T10:39:57;13.00;13.00
3198;DHT22;1611;49.394;11.136;2023-03-01T10:42:28;13.00;13.20
3198;DHT22;1611;49.394;11.136;2023-03-01T10:44:55;12.80;13.20
3198;DHT22;1611;49.394;11.136;2023-03-01T10:47:25;12.80;13.50
3198;DHT22;1611;49.394;11.136;2023-03-01T10:49:55;12.70;12.90
3198;DHT22;1611;49.394;11.136;2023-03-01T10:52:24;12.50;13.20
3198;DHT22;1611;49.394;11.136;2023-03-01T10:54:54;12.50;13.30
3198;DHT22;1611;49.394;11.136;2023-03-01T10:57:29;12.30;13.40
3198;DHT22;1611;49.394;11.136;2023-03-01T11:00:15;12.20;13.90
3198;DHT22;1611;49.394;11.136;2023-03-01T11:02:50;11.90;14.80
3198;DHT22;1611;49.394;11.136;2023-03-01T11:05:21;12.10;14.70
3198;DHT22;1611;49.394;11.136;2023-03-01T11:07:51;12.60;14.30
3198;DHT22;1611;49.394;11.136;2023-03-01T11:10:22;13.20;13.70
3198;DHT22;1611;49.394;11.136;2023-03-01T11:12:51;13.60;12.60
3198;DHT22;1611;49.394;11.136;2023-03-01T11:15:24;13.80;12.50
3198;DHT22;1611;49.394;11.136;2023-03-01T11:17:53;13.90;12.20
3198;DHT22;1611;49.394;11.136;2023-03-01T11:20:26;14.10;11.80
3198;DHT22;1611;49.394;11.136;2023-03-01T11:22:55;13.80;11.30
3198;DHT22;1611;49.394;11.136;2023-03-01T11:25:25;12.90;13.00
3198;DHT22;1611;49.394;11.136;2023-03-01T11:27:53;11.90;14.50
3198;DHT22;1611;49.394;11.136;2023-03-01T11:30:23;11.40;15.20
3198;DHT22;1611;49.394;11.136;2023-03-01T11:33:01;11.30;16.20
3198;DHT22;1611;49.394;11.136;2023-03-01T11:35:29;11.50;15.80
3198;DHT22;1611;49.394;11.136;2023-03-01T11:38:05;12.20;15.10
3198;DHT22;1611;49.394;11.136;2023-03-01T11:40:40;12.70;14.20
3198;DHT22;1611;49.394;11.136;2023-03-01T11:43:15;13.20;13.30
3198;DHT22;1611;49.394;11.136;2023-03-01T11:45:54;13.60;13.00
3198;DHT22;1611;49.394;11.136;2023-03-01T11:48:44;13.50;12.80
3198;DHT22;1611;49.394;11.136;2023-03-01T11:51:21;13.40;12.80
3198;DHT22;1611;49.394;11.136;2023-03-01T11:53:59;13.10;13.30
3198;DHT22;1611;49.394;11.136;2023-03-01T11:56:31;12.50;13.90
3198;DHT22;1611;49.394;11.136;2023-03-01T11:59:24;12.30;14.90
3198;DHT22;1611;49.394;11.136;2023-03-01T12:02:26;12.40;14.60
3198;DHT22;1611;49.394;11.136;2023-03-01T12:05:08;12.40;15.00
3198;DHT22;1611;49.394;11.136;2023-03-01T12:07:47;11.70;15.00
3198;DHT22;1611;49.394;11.136;2023-03-01T12:10:22;11.50;16.30
3198;DHT22;1611;49.394;11.136;2023-03-01T12:13:03;11.40;15.80
3198;DHT22;1611;49.394;11.136;2023-03-01T12:15:55;11.40;16.20
3198;DHT22;1611;49.394;11.136;2023-03-01T12:18:46;11.10;16.50
3198;DHT22;1611;49.394;11.136;2023-03-01T12:21:26;11.30;16.60
3198;DHT22;1611;49.394;11.136;2023-03-01T12:27:10;11.40;16.30
3198;DHT22;1611;49.394;11.136;2023-03-01T12:29:43;11.50;16.70
3198;DHT22;1611;49.394;11.136;2023-03-01T12:32:26;12.10;15.80
3198;DHT22;1611;49.394;11.136;2023-03-01T12:35:13;12.70;14.80
3198;DHT22;1611;49.394;11.136;2023-03-01T12:37:54;13.40;14.10
3198;DHT22;1611;49.394;11.136;2023-03-01T12:40:46;14.20;13.10
3198;DHT22;1611;49.394;11.136;2023-03-01T12:43:26;14.40;12.40
3198;DHT22;1611;49.394;11.136;2023-03-01T12:46:07;14.50;12.90
3198;DHT22;1611;49.394;11.136;2023-03-01T12:48:43;14.70;12.80
3198;DHT22;1611;49.394;11.136;2023-03-01T12:51:17;15.00;12.50
3198;DHT22;1611;49.394;11.136;2023-03-01T12:53:49;14.90;12.00
3198;DHT22;1611;49.394;11.136;2023-03-01T12:56:19;14.60;12.40
3198;DHT22;1611;49.394;11.136;2023-03-01T12:58:58;14.30;12.50
3198;DHT22;1611;49.394;11.136;2023-03-01T13:01:35;14.10;13.60
3198;DHT22;1611;49.394;11.136;2023-03-01T13:04:19;13.70;14.50
3198;DHT22;1611;49.394;11.136;2023-03-01T13:06:55;13.40;14.80
3198;DHT22;1611;49.394;11.136;2023-03-01T13:09:31;13.60;15.10
3198;DHT22;1611;49.394;11.136;2023-03-01T13:12:01;14.00;16.70
3198;DHT22;1611;49.394;11.136;2023-03-01T13:14:36;14.50;14.10
3198;DHT22;1611;49.394;11.136;2023-03-01T13:17:03;14.20;15.50
3198;DHT22;1611;49.394;11.136;2023-03-01T13:19:30;13.90;14.70
3198;DHT22;1611;49.394;11.136;2023-03-01T13:21:58;14.20;14.70
3198;DHT22;1611;49.394;11.136;2023-03-01T13:24:35;14.60;13.90
3198;DHT22;1611;49.394;11.136;2023-03-01T13:27:18;15.20;13.30
3198;DHT22;1611;49.394;11.136;2023-03-01T13:29:49;15.70;12.30
3198;DHT22;1611;49.394;11.136;2023-03-01T13:32:21;15.80;12.40
3198;DHT22;1611;49.394;11.136;2023-03-01T13:34:56;15.50;12.80
3198;DHT22;1611;49.394;11.136;2023-03-01T13:37:28;15.30;13.20
3198;DHT22;1611;49.394;11.136;2023-03-01T13:39:59;14.70;13.70
3198;DHT22;1611;49.394;11.136;2023-03-01T13:42:42;14.20;14.30
3198;DHT22;1611;49.394;11.136;2023-03-01T13:45:20;14.60;13.90
3198;DHT22;1611;49.394;11.136;2023-03-01T13:47:52;14.50;14.00
3198;DHT22;1611;49.394;11.136;2023-03-01T13:50:21;14.40;14.50
3198;DHT22;1611;49.394;11.136;2023-03-01T13:52:52;13.90;15.00
3198;DHT22;1611;49.394;11.136;2023-03-01T13:55:23;13.50;15.80
3198;DHT22;1611;49.394;11.136;2023-03-01T13:57:54;12.80;16.50
3198;DHT22;1611;49.394;11.136;2023-03-01T14:00:34;12.20;17.90
3198;DHT22;1611;49.394;11.136;2023-03-01T14:03:09;12.00;18.30
3198;DHT22;1611;49.394;11.136;2023-03-01T14:05:37;11.70;18.60
3198;DHT22;1611;49.394;11.136;2023-03-01T14:08:05;11.60;19.00
3198;DHT22;1611;49.394;11.136;2023-03-01T14:10:53;11.50;19.40
3198;DHT22;1611;49.394;11.136;2023-03-01T14:13:30;11.30;19.90
3198;DHT22;1611;49.394;11.136;2023-03-01T14:16:13;11.10;20.10
3198;DHT22;1611;49.394;11.136;2023-03-01T14:18:51;11.10;20.30
3198;DHT22;1611;49.394;11.136;2023-03-01T14:21:24;11.50;19.90
3198;DHT22;1611;49.394;11.136;2023-03-01T14:23:52;11.50;19.90
3198;DHT22;1611;49.394;11.136;2023-03-01T14:26:22;11.80;19.30
3198;DHT22;1611;49.394;11.136;2023-03-01T14:28:50;12.10;19.10
3198;DHT22;1611;49.394;11.136;2023-03-01T14:31:32;12.20;18.60
3198;DHT22;1611;49.394;11.136;2023-03-01T14:34:01;12.10;18.80
3198;DHT22;1611;49.394;11.136;2023-03-01T14:36:29;12.50;18.30
3198;DHT22;1611;49.394;11.136;2023-03-01T14:38:57;12.70;17.80
3198;DHT22;1611;49.394;11.136;2023-03-01T14:41:33;12.30;18.70
3198;DHT22;1611;49.394;11.136;2023-03-01T14:44:03;12.00;18.90
3198;DHT22;1611;49.394;11.136;2023-03-01T14:46:33;11.70;19.70
3198;DHT22;1611;49.394;11.136;2023-03-01T14:49:03;11.50;20.00
3198;DHT22;1611;49.394;11.136;2023-03-01T14:51:35;11.50;20.30
3198;DHT22;1611;49.394;11.136;2023-03-01T14:54:02;11.30;20.60
3198;DHT22;1611;49.394;11.136;2023-03-01T14:56:45;11.10;21.10
3198;DHT22;1611;49.394;11.136;2023-03-01T14:59:12;10.80;21.60
3198;DHT22;1611;49.394;11.136;2023-03-01T15:01:40;10.40;22.10
3198;DHT22;1611;49.394;11.136;2023-03-01T15:04:11;10.00;22.90
3198;DHT22;1611;49.394;11.136;2023-03-01T15:06:38;9.90;23.50
3198;DHT22;1611;49.394;11.136;2023-03-01T15:09:06;9.80;24.00
3198;DHT22;1611;49.394;11.136;2023-03-01T15:11:37;9.70;24.20
3198;DHT22;1611;49.394;11.136;2023-03-01T15:14:26;9.70;24.60
3198;DHT22;1611;49.394;11.136;2023-03-01T15:16:53;9.60;24.80
3198;DHT22;1611;49.394;11.136;2023-03-01T15:19:22;9.50;24.90
3198;DHT22;1611;49.394;11.136;2023-03-01T15:21:50;9.60;25.10
3198;DHT22;1611;49.394;11.136;2023-03-01T15:24:22;10.30;24.10
3198;DHT22;1611;49.394;11.136;2023-03-01T15:26:51;11.10;21.70
3198;DHT22;1611;49.394;11.136;2023-03-01T15:29:22;10.90;22.30
3198;DHT22;1611;49.394;11.136;2023-03-01T15:31:58;10.40;22.80
3198;DHT22;1611;49.394;11.136;2023-03-01T15:34:28;10.10;23.50
3198;DHT22;1611;49.394;11.136;2023-03-01T15:36:56;10.10;23.90
3198;DHT22;1611;49.394;11.136;2023-03-01T15:39:34;10.00;23.80
3198;DHT22;1611;49.394;11.136;2023-03-01T15:42:03;10.00;24.00
3198;DHT22;1611;49.394;11.136;2023-03-01T15:44:34;9.90;23.90
3198;DHT22;1611;49.394;11.136;2023-03-01T15:47:08;9.80;24.10
3198;DHT22;1611;49.394;11.136;2023-03-01T15:49:47;9.70;24.80
3198;DHT22;1611;49.394;11.136;2023-03-01T15:52:22;9.50;25.00
3198;DHT22;1611;49.394;11.136;2023-03-01T15:54:55;9.30;25.80
3198;DHT22;1611;49.394;11.136;2023-03-01T15:57:21;9.00;26.40
3198;DHT22;1611;49.394;11.136;2023-03-01T15:59:48;8.80;27.00
3198;DHT22;1611;49.394;11.136;2023-03-01T16:02:16;8.60;27.50
3198;DHT22;1611;49.394;11.136;2023-03-01T16:04:46;8.30;28.20
3198;DHT22;1611;49.394;11.136;2023-03-01T16:07:14;8.10;28.70
3198;DHT22;1611;49.394;11.136;2023-03-01T16:09:41;7.90;29.10
3198;DHT22;1611;49.394;11.136;2023-03-01T16:12:12;7.80;29.40
3198;DHT22;1611;49.394;11.136;2023-03-01T16:14:41;7.80;29.70